sensor_id;sensor_type;location;lat;lon;timestamp;P1;durP1;ratioP1;P2;durP2;ratioP2
59786;SDS011;45672;51.612;5.536;2022-08-19T00:00:05;22.38;;;19.83;;
59786;SDS011;45672;51.612;5.536;2022-08-19T00:02:33;23.53;;;19.57;;
59786;SDS011;45672;51.612;5.536;2022-08-19T00:04:59;22.70;;;19.63;;
59786;SDS011;45672;51.612;5.536;2022-08-19T00:07:24;24.88;;;19.58;;
59786;SDS011;45672;51.612;5.536;2022-08-19T00:09:50;23.33;;;18.92;;
59786;SDS011;45672;51.612;5.536;2022-08-19T00:12:15;27.90;;;20.10;;
59786;SDS011;45672;51.612;5.536;2022-08-19T00:14:40;27.80;;;19.42;;
59786;SDS011;45672;51.612;5.536;2022-08-19T00:17:06;21.23;;;19.00;;
59786;SDS011;45672;51.612;5.536;2022-08-19T00:19:32;24.02;;;19.65;;
59786;SDS011;45672;51.612;5.536;2022-08-19T00:21:59;23.60;;;19.20;;
59786;SDS011;45672;51.612;5.536;2022-08-19T00:24:24;26.55;;;18.90;;
59786;SDS011;45672;51.612;5.536;2022-08-19T00:26:50;26.77;;;18.92;;
59786;SDS011;45672;51.612;5.536;2022-08-19T00:29:19;26.17;;;18.85;;
59786;SDS011;45672;51.612;5.536;2022-08-19T00:31:46;21.75;;;19.30;;
59786;SDS011;45672;51.612;5.536;2022-08-19T00:34:13;25.83;;;19.25;;
59786;SDS011;45672;51.612;5.536;2022-08-19T00:36:40;20.67;;;18.45;;
59786;SDS011;45672;51.612;5.536;2022-08-19T00:39:06;22.80;;;19.20;;
59786;SDS011;45672;51.612;5.536;2022-08-19T00:41:32;23.13;;;19.85;;
59786;SDS011;45672;51.612;5.536;2022-08-19T00:46:31;23.73;;;19.65;;
59786;SDS011;45672;51.612;5.536;2022-08-19T00:48:58;22.77;;;19.98;;
59786;SDS011;45672;51.612;5.536;2022-08-19T00:51:25;28.02;;;20.98;;
59786;SDS011;45672;51.612;5.536;2022-08-19T00:53:53;26.10;;;21.88;;
59786;SDS011;45672;51.612;5.536;2022-08-19T00:56:20;32.50;;;24.00;;
59786;SDS011;45672;51.612;5.536;2022-08-19T00:58:45;35.72;;;24.33;;
59786;SDS011;45672;51.612;5.536;2022-08-19T01:01:11;42.85;;;25.02;;
59786;SDS011;45672;51.612;5.536;2022-08-19T01:03:36;38.20;;;25.33;;
59786;SDS011;45672;51.612;5.536;2022-08-19T01:06:02;30.92;;;23.10;;
59786;SDS011;45672;51.612;5.536;2022-08-19T01:08:27;32.58;;;23.25;;
59786;SDS011;45672;51.612;5.536;2022-08-19T01:10:53;34.28;;;24.60;;
59786;SDS011;45672;51.612;5.536;2022-08-19T01:13:23;34.13;;;25.27;;
59786;SDS011;45672;51.612;5.536;2022-08-19T01:15:59;35.28;;;25.63;;
59786;SDS011;45672;51.612;5.536;2022-08-19T01:18:28;34.25;;;25.42;;
59786;SDS011;45672;51.612;5.536;2022-08-19T01:20:58;37.28;;;25.95;;
59786;SDS011;45672;51.612;5.536;2022-08-19T01:23:28;44.17;;;27.35;;
59786;SDS011;45672;51.612;5.536;2022-08-19T01:26:08;46.20;;;27.08;;
59786;SDS011;45672;51.612;5.536;2022-08-19T01:28:38;31.75;;;24.33;;
59786;SDS011;45672;51.612;5.536;2022-08-19T01:31:05;33.10;;;24.80;;
59786;SDS011;45672;51.612;5.536;2022-08-19T01:33:31;31.60;;;24.00;;
59786;SDS011;45672;51.612;5.536;2022-08-19T01:36:32;38.58;;;24.60;;
59786;SDS011;45672;51.612;5.536;2022-08-19T01:38:51;36.22;;;23.63;;
59786;SDS011;45672;51.612;5.536;2022-08-19T01:41:17;36.40;;;24.38;;
59786;SDS011;45672;51.612;5.536;2022-08-19T01:43:43;32.67;;;23.60;;
59786;SDS011;45672;51.612;5.536;2022-08-19T01:46:08;31.45;;;23.80;;
59786;SDS011;45672;51.612;5.536;2022-08-19T01:48:37;31.48;;;23.83;;
59786;SDS011;45672;51.612;5.536;2022-08-19T01:51:05;32.92;;;24.30;;
59786;SDS011;45672;51.612;5.536;2022-08-19T01:53:32;35.45;;;25.20;;
59786;SDS011;45672;51.612;5.536;2022-08-19T01:55:57;31.27;;;25.02;;
59786;SDS011;45672;51.612;5.536;2022-08-19T01:58:24;30.25;;;24.25;;
59786;SDS011;45672;51.612;5.536;2022-08-19T02:00:55;30.63;;;23.83;;
59786;SDS011;45672;51.612;5.536;2022-08-19T02:03:20;37.25;;;24.90;;
59786;SDS011;45672;51.612;5.536;2022-08-19T02:05:47;34.55;;;25.10;;
59786;SDS011;45672;51.612;5.536;2022-08-19T02:08:12;31.50;;;24.38;;
59786;SDS011;45672;51.612;5.536;2022-08-19T02:10:38;33.58;;;24.52;;
59786;SDS011;45672;51.612;5.536;2022-08-19T02:13:05;37.25;;;24.92;;
59786;SDS011;45672;51.612;5.536;2022-08-19T02:15:31;38.63;;;25.60;;
59786;SDS011;45672;51.612;5.536;2022-08-19T02:17:56;33.90;;;24.23;;
59786;SDS011;45672;51.612;5.536;2022-08-19T02:20:22;36.47;;;24.70;;
59786;SDS011;45672;51.612;5.536;2022-08-19T02:22:47;45.75;;;25.65;;
59786;SDS011;45672;51.612;5.536;2022-08-19T02:25:13;35.25;;;25.45;;
59786;SDS011;45672;51.612;5.536;2022-08-19T02:27:39;39.30;;;25.55;;
59786;SDS011;45672;51.612;5.536;2022-08-19T02:30:06;39.72;;;26.75;;
59786;SDS011;45672;51.612;5.536;2022-08-19T02:32:33;40.78;;;25.90;;
59786;SDS011;45672;51.612;5.536;2022-08-19T02:34:59;38.28;;;25.98;;
59786;SDS011;45672;51.612;5.536;2022-08-19T02:37:24;37.65;;;27.17;;
59786;SDS011;45672;51.612;5.536;2022-08-19T02:40:08;37.78;;;25.27;;
59786;SDS011;45672;51.612;5.536;2022-08-19T02:42:34;37.70;;;25.13;;
59786;SDS011;45672;51.612;5.536;2022-08-19T02:44:59;40.50;;;25.63;;
59786;SDS011;45672;51.612;5.536;2022-08-19T02:47:25;36.38;;;25.45;;
59786;SDS011;45672;51.612;5.536;2022-08-19T02:49:50;37.42;;;26.05;;
59786;SDS011;45672;51.612;5.536;2022-08-19T02:52:15;34.38;;;25.58;;
59786;SDS011;45672;51.612;5.536;2022-08-19T02:54:41;32.92;;;24.23;;
59786;SDS011;45672;51.612;5.536;2022-08-19T02:57:07;34.42;;;25.27;;
59786;SDS011;45672;51.612;5.536;2022-08-19T02:59:33;35.60;;;24.40;;
59786;SDS011;45672;51.612;5.536;2022-08-19T03:01:58;30.92;;;24.30;;
59786;SDS011;45672;51.612;5.536;2022-08-19T03:04:23;29.95;;;24.08;;
59786;SDS011;45672;51.612;5.536;2022-08-19T03:06:49;33.33;;;26.17;;
59786;SDS011;45672;51.612;5.536;2022-08-19T03:09:15;33.85;;;24.83;;
59786;SDS011;45672;51.612;5.536;2022-08-19T03:11:42;36.40;;;25.80;;
59786;SDS011;45672;51.612;5.536;2022-08-19T03:14:08;35.28;;;25.70;;
59786;SDS011;45672;51.612;5.536;2022-08-19T03:16:36;34.08;;;26.10;;
59786;SDS011;45672;51.612;5.536;2022-08-19T03:19:07;35.00;;;26.25;;
59786;SDS011;45672;51.612;5.536;2022-08-19T03:21:32;37.05;;;26.35;;
59786;SDS011;45672;51.612;5.536;2022-08-19T03:24:00;31.08;;;24.85;;
59786;SDS011;45672;51.612;5.536;2022-08-19T03:26:27;34.50;;;25.35;;
59786;SDS011;45672;51.612;5.536;2022-08-19T03:28:53;33.50;;;25.92;;
59786;SDS011;45672;51.612;5.536;2022-08-19T03:31:20;32.65;;;25.52;;
59786;SDS011;45672;51.612;5.536;2022-08-19T03:33:47;35.00;;;25.30;;
59786;SDS011;45672;51.612;5.536;2022-08-19T03:36:15;42.28;;;26.65;;
59786;SDS011;45672;51.612;5.536;2022-08-19T03:38:44;35.58;;;25.85;;
59786;SDS011;45672;51.612;5.536;2022-08-19T03:41:17;30.67;;;24.15;;
59786;SDS011;45672;51.612;5.536;2022-08-19T03:43:46;33.42;;;25.02;;
59786;SDS011;45672;51.612;5.536;2022-08-19T03:46:13;36.22;;;25.02;;
59786;SDS011;45672;51.612;5.536;2022-08-19T03:48:41;31.55;;;23.40;;
59786;SDS011;45672;51.612;5.536;2022-08-19T03:51:07;29.73;;;23.63;;
59786;SDS011;45672;51.612;5.536;2022-08-19T03:53:42;30.60;;;24.25;;
59786;SDS011;45672;51.612;5.536;2022-08-19T03:56:08;32.53;;;24.48;;
59786;SDS011;45672;51.612;5.536;2022-08-19T03:58:34;30.45;;;23.67;;
59786;SDS011;45672;51.612;5.536;2022-08-19T04:01:00;30.45;;;23.45;;
59786;SDS011;45672;51.612;5.536;2022-08-19T04:03:25;31.77;;;23.92;;
59786;SDS011;45672;51.612;5.536;2022-08-19T04:05:52;35.03;;;24.63;;
59786;SDS011;45672;51.612;5.536;2022-08-19T04:08:18;34.20;;;23.67;;
59786;SDS011;45672;51.612;5.536;2022-08-19T04:10:45;30.90;;;23.75;;
59786;SDS011;45672;51.612;5.536;2022-08-19T04:13:12;35.97;;;24.15;;
59786;SDS011;45672;51.612;5.536;2022-08-19T04:15:39;34.17;;;23.67;;
59786;SDS011;45672;51.612;5.536;2022-08-19T04:18:06;28.17;;;22.25;;
59786;SDS011;45672;51.612;5.536;2022-08-19T04:20:38;28.63;;;23.75;;
59786;SDS011;45672;51.612;5.536;2022-08-19T04:23:05;30.05;;;22.88;;
59786;SDS011;45672;51.612;5.536;2022-08-19T04:25:34;31.45;;;23.63;;
59786;SDS011;45672;51.612;5.536;2022-08-19T04:28:01;30.15;;;22.25;;
59786;SDS011;45672;51.612;5.536;2022-08-19T04:30:27;33.55;;;21.70;;
59786;SDS011;45672;51.612;5.536;2022-08-19T04:32:52;25.90;;;20.73;;
59786;SDS011;45672;51.612;5.536;2022-08-19T04:35:17;25.65;;;20.38;;
59786;SDS011;45672;51.612;5.536;2022-08-19T04:37:42;25.35;;;20.63;;
59786;SDS011;45672;51.612;5.536;2022-08-19T04:40:08;32.90;;;21.10;;
59786;SDS011;45672;51.612;5.536;2022-08-19T04:42:52;25.95;;;20.05;;
59786;SDS011;45672;51.612;5.536;2022-08-19T04:45:18;27.17;;;20.27;;
59786;SDS011;45672;51.612;5.536;2022-08-19T04:47:43;24.33;;;19.02;;
59786;SDS011;45672;51.612;5.536;2022-08-19T04:50:09;29.60;;;21.38;;
59786;SDS011;45672;51.612;5.536;2022-08-19T04:52:37;29.92;;;22.17;;
59786;SDS011;45672;51.612;5.536;2022-08-19T04:55:07;27.30;;;21.85;;
59786;SDS011;45672;51.612;5.536;2022-08-19T04:57:33;31.73;;;21.52;;
59786;SDS011;45672;51.612;5.536;2022-08-19T04:59:58;31.08;;;21.98;;
59786;SDS011;45672;51.612;5.536;2022-08-19T05:02:23;26.75;;;21.35;;
59786;SDS011;45672;51.612;5.536;2022-08-19T05:04:49;24.90;;;19.98;;
59786;SDS011;45672;51.612;5.536;2022-08-19T05:07:15;28.83;;;20.90;;
59786;SDS011;45672;51.612;5.536;2022-08-19T05:09:40;28.30;;;21.63;;
59786;SDS011;45672;51.612;5.536;2022-08-19T05:12:05;26.23;;;20.70;;
59786;SDS011;45672;51.612;5.536;2022-08-19T05:14:31;30.10;;;21.08;;
59786;SDS011;45672;51.612;5.536;2022-08-19T05:16:56;30.30;;;21.15;;
59786;SDS011;45672;51.612;5.536;2022-08-19T05:19:21;28.50;;;22.10;;
59786;SDS011;45672;51.612;5.536;2022-08-19T05:22:05;28.33;;;22.10;;
59786;SDS011;45672;51.612;5.536;2022-08-19T05:24:49;29.92;;;23.02;;
59786;SDS011;45672;51.612;5.536;2022-08-19T05:27:15;32.25;;;23.40;;
59786;SDS011;45672;51.612;5.536;2022-08-19T05:29:40;32.75;;;23.95;;
59786;SDS011;45672;51.612;5.536;2022-08-19T05:32:06;43.63;;;27.85;;
59786;SDS011;45672;51.612;5.536;2022-08-19T05:34:35;38.42;;;28.17;;
59786;SDS011;45672;51.612;5.536;2022-08-19T05:37:03;36.45;;;27.90;;
59786;SDS011;45672;51.612;5.536;2022-08-19T05:39:30;51.55;;;34.15;;
59786;SDS011;45672;51.612;5.536;2022-08-19T05:41:59;53.92;;;34.33;;
59786;SDS011;45672;51.612;5.536;2022-08-19T05:44:28;52.10;;;34.47;;
59786;SDS011;45672;51.612;5.536;2022-08-19T05:46:58;54.63;;;35.50;;
59786;SDS011;45672;51.612;5.536;2022-08-19T05:49:26;53.80;;;35.78;;
59786;SDS011;45672;51.612;5.536;2022-08-19T05:51:52;55.53;;;37.85;;
59786;SDS011;45672;51.612;5.536;2022-08-19T05:54:19;60.10;;;39.70;;
59786;SDS011;45672;51.612;5.536;2022-08-19T05:56:46;60.58;;;37.38;;
59786;SDS011;45672;51.612;5.536;2022-08-19T05:59:13;61.10;;;37.47;;
59786;SDS011;45672;51.612;5.536;2022-08-19T06:01:41;58.13;;;36.10;;
59786;SDS011;45672;51.612;5.536;2022-08-19T06:04:08;54.97;;;37.03;;
59786;SDS011;45672;51.612;5.536;2022-08-19T06:06:34;59.35;;;37.70;;
59786;SDS011;45672;51.612;5.536;2022-08-19T06:09:01;64.18;;;37.90;;
59786;SDS011;45672;51.612;5.536;2022-08-19T06:11:33;61.38;;;38.60;;
59786;SDS011;45672;51.612;5.536;2022-08-19T06:14:03;56.85;;;36.03;;
59786;SDS011;45672;51.612;5.536;2022-08-19T06:16:49;58.88;;;38.60;;
59786;SDS011;45672;51.612;5.536;2022-08-19T06:19:17;58.40;;;38.25;;
59786;SDS011;45672;51.612;5.536;2022-08-19T06:21:44;64.35;;;38.88;;
59786;SDS011;45672;51.612;5.536;2022-08-19T06:24:13;62.38;;;37.95;;
59786;SDS011;45672;51.612;5.536;2022-08-19T06:26:41;61.45;;;38.53;;
59786;SDS011;45672;51.612;5.536;2022-08-19T06:29:10;59.15;;;37.03;;
59786;SDS011;45672;51.612;5.536;2022-08-19T06:31:40;60.80;;;36.92;;
59786;SDS011;45672;51.612;5.536;2022-08-19T06:34:07;59.00;;;36.22;;
59786;SDS011;45672;51.612;5.536;2022-08-19T06:36:33;56.53;;;36.08;;
59786;SDS011;45672;51.612;5.536;2022-08-19T06:41:32;53.03;;;33.92;;
59786;SDS011;45672;51.612;5.536;2022-08-19T06:44:00;53.08;;;33.25;;
59786;SDS011;45672;51.612;5.536;2022-08-19T06:46:25;51.20;;;33.38;;
59786;SDS011;45672;51.612;5.536;2022-08-19T06:48:51;53.60;;;32.95;;
59786;SDS011;45672;51.612;5.536;2022-08-19T06:51:18;55.60;;;32.50;;
59786;SDS011;45672;51.612;5.536;2022-08-19T06:53:44;50.78;;;30.13;;
59786;SDS011;45672;51.612;5.536;2022-08-19T06:56:14;49.88;;;32.45;;
59786;SDS011;45672;51.612;5.536;2022-08-19T06:58:40;46.63;;;30.65;;
59786;SDS011;45672;51.612;5.536;2022-08-19T07:01:07;46.40;;;29.73;;
59786;SDS011;45672;51.612;5.536;2022-08-19T07:03:34;46.10;;;30.02;;
59786;SDS011;45672;51.612;5.536;2022-08-19T07:06:04;48.67;;;30.45;;
59786;SDS011;45672;51.612;5.536;2022-08-19T07:08:30;46.65;;;29.90;;
59786;SDS011;45672;51.612;5.536;2022-08-19T07:10:55;46.17;;;29.08;;
59786;SDS011;45672;51.612;5.536;2022-08-19T07:13:21;44.85;;;29.48;;
59786;SDS011;45672;51.612;5.536;2022-08-19T07:15:47;45.90;;;28.67;;
59786;SDS011;45672;51.612;5.536;2022-08-19T07:18:15;41.95;;;27.58;;
59786;SDS011;45672;51.612;5.536;2022-08-19T07:20:40;42.10;;;28.13;;
59786;SDS011;45672;51.612;5.536;2022-08-19T07:23:08;41.42;;;27.08;;
59786;SDS011;45672;51.612;5.536;2022-08-19T07:25:33;42.40;;;27.65;;
59786;SDS011;45672;51.612;5.536;2022-08-19T07:28:01;44.00;;;28.17;;
59786;SDS011;45672;51.612;5.536;2022-08-19T07:30:27;45.50;;;31.20;;
59786;SDS011;45672;51.612;5.536;2022-08-19T07:32:52;43.70;;;29.48;;
59786;SDS011;45672;51.612;5.536;2022-08-19T07:35:17;42.75;;;29.52;;
59786;SDS011;45672;51.612;5.536;2022-08-19T07:37:45;48.25;;;30.73;;
59786;SDS011;45672;51.612;5.536;2022-08-19T07:40:11;49.00;;;31.67;;
59786;SDS011;45672;51.612;5.536;2022-08-19T07:42:36;45.75;;;29.83;;
59786;SDS011;45672;51.612;5.536;2022-08-19T07:45:02;49.38;;;30.05;;
59786;SDS011;45672;51.612;5.536;2022-08-19T07:47:29;46.78;;;28.52;;
59786;SDS011;45672;51.612;5.536;2022-08-19T07:49:55;51.42;;;30.90;;
59786;SDS011;45672;51.612;5.536;2022-08-19T07:52:21;51.10;;;31.58;;
59786;SDS011;45672;51.612;5.536;2022-08-19T07:54:47;56.45;;;32.70;;
59786;SDS011;45672;51.612;5.536;2022-08-19T07:57:13;51.42;;;32.05;;
59786;SDS011;45672;51.612;5.536;2022-08-19T07:59:38;48.47;;;30.65;;
59786;SDS011;45672;51.612;5.536;2022-08-19T08:02:04;46.65;;;30.13;;
59786;SDS011;45672;51.612;5.536;2022-08-19T08:04:29;43.15;;;27.67;;
59786;SDS011;45672;51.612;5.536;2022-08-19T08:07:14;46.78;;;28.08;;
59786;SDS011;45672;51.612;5.536;2022-08-19T08:09:59;47.30;;;28.77;;
59786;SDS011;45672;51.612;5.536;2022-08-19T08:12:26;49.70;;;30.38;;
59786;SDS011;45672;51.612;5.536;2022-08-19T08:14:59;40.38;;;28.05;;
59786;SDS011;45672;51.612;5.536;2022-08-19T08:17:30;49.30;;;28.73;;
59786;SDS011;45672;51.612;5.536;2022-08-19T08:19:56;49.38;;;30.27;;
59786;SDS011;45672;51.612;5.536;2022-08-19T08:22:22;45.03;;;29.08;;
59786;SDS011;45672;51.612;5.536;2022-08-19T08:25:11;47.13;;;29.02;;
59786;SDS011;45672;51.612;5.536;2022-08-19T08:27:52;48.53;;;28.83;;
59786;SDS011;45672;51.612;5.536;2022-08-19T08:30:22;51.75;;;30.73;;
59786;SDS011;45672;51.612;5.536;2022-08-19T08:32:50;50.20;;;30.73;;
59786;SDS011;45672;51.612;5.536;2022-08-19T08:35:17;46.55;;;29.10;;
59786;SDS011;45672;51.612;5.536;2022-08-19T08:37:44;47.90;;;28.17;;
59786;SDS011;45672;51.612;5.536;2022-08-19T08:40:23;42.95;;;27.70;;
59786;SDS011;45672;51.612;5.536;2022-08-19T08:45:25;36.22;;;23.67;;
59786;SDS011;45672;51.612;5.536;2022-08-19T08:47:52;41.67;;;26.92;;
59786;SDS011;45672;51.612;5.536;2022-08-19T08:50:25;38.38;;;26.35;;
59786;SDS011;45672;51.612;5.536;2022-08-19T08:53:00;40.20;;;27.27;;
59786;SDS011;45672;51.612;5.536;2022-08-19T08:55:28;42.22;;;27.42;;
59786;SDS011;45672;51.612;5.536;2022-08-19T08:58:01;46.13;;;28.85;;
59786;SDS011;45672;51.612;5.536;2022-08-19T09:00:38;38.35;;;26.58;;
59786;SDS011;45672;51.612;5.536;2022-08-19T09:03:21;37.28;;;26.10;;
59786;SDS011;45672;51.612;5.536;2022-08-19T09:05:54;43.35;;;25.85;;
59786;SDS011;45672;51.612;5.536;2022-08-19T09:08:35;36.97;;;25.50;;
59786;SDS011;45672;51.612;5.536;2022-08-19T09:14:09;33.13;;;24.38;;
59786;SDS011;45672;51.612;5.536;2022-08-19T09:16:45;32.33;;;23.88;;
59786;SDS011;45672;51.612;5.536;2022-08-19T09:19:10;38.25;;;23.60;;
59786;SDS011;45672;51.612;5.536;2022-08-19T09:21:36;32.72;;;23.60;;
59786;SDS011;45672;51.612;5.536;2022-08-19T09:24:03;35.85;;;24.65;;
59786;SDS011;45672;51.612;5.536;2022-08-19T09:26:30;36.05;;;26.08;;
59786;SDS011;45672;51.612;5.536;2022-08-19T09:28:57;34.78;;;25.60;;
59786;SDS011;45672;51.612;5.536;2022-08-19T09:31:25;35.53;;;24.92;;
59786;SDS011;45672;51.612;5.536;2022-08-19T09:33:51;39.75;;;26.60;;
59786;SDS011;45672;51.612;5.536;2022-08-19T09:36:18;37.38;;;24.33;;
59786;SDS011;45672;51.612;5.536;2022-08-19T09:38:47;37.78;;;26.70;;
59786;SDS011;45672;51.612;5.536;2022-08-19T09:41:16;37.28;;;26.35;;
59786;SDS011;45672;51.612;5.536;2022-08-19T09:43:44;44.10;;;27.70;;
59786;SDS011;45672;51.612;5.536;2022-08-19T09:46:11;43.72;;;28.75;;
59786;SDS011;45672;51.612;5.536;2022-08-19T09:48:37;40.22;;;28.17;;
59786;SDS011;45672;51.612;5.536;2022-08-19T09:51:08;40.10;;;27.35;;
59786;SDS011;45672;51.612;5.536;2022-08-19T09:53:37;44.00;;;30.75;;
59786;SDS011;45672;51.612;5.536;2022-08-19T09:56:04;36.08;;;26.98;;
59786;SDS011;45672;51.612;5.536;2022-08-19T09:58:30;39.08;;;28.02;;
59786;SDS011;45672;51.612;5.536;2022-08-19T10:00:57;46.22;;;30.90;;
59786;SDS011;45672;51.612;5.536;2022-08-19T10:03:23;43.95;;;29.42;;
59786;SDS011;45672;51.612;5.536;2022-08-19T10:05:49;43.55;;;28.90;;
59786;SDS011;45672;51.612;5.536;2022-08-19T10:08:16;42.95;;;28.63;;
59786;SDS011;45672;51.612;5.536;2022-08-19T10:10:42;37.65;;;27.67;;
59786;SDS011;45672;51.612;5.536;2022-08-19T10:13:08;48.95;;;30.00;;
59786;SDS011;45672;51.612;5.536;2022-08-19T10:15:34;45.63;;;30.52;;
59786;SDS011;45672;51.612;5.536;2022-08-19T10:17:59;44.33;;;30.35;;
59786;SDS011;45672;51.612;5.536;2022-08-19T10:20:25;40.22;;;29.30;;
59786;SDS011;45672;51.612;5.536;2022-08-19T10:22:50;43.55;;;29.10;;
59786;SDS011;45672;51.612;5.536;2022-08-19T10:25:15;47.03;;;32.38;;
59786;SDS011;45672;51.612;5.536;2022-08-19T10:27:41;48.53;;;30.65;;
59786;SDS011;45672;51.612;5.536;2022-08-19T10:30:07;42.42;;;30.25;;
59786;SDS011;45672;51.612;5.536;2022-08-19T10:32:33;47.20;;;29.88;;
59786;SDS011;45672;51.612;5.536;2022-08-19T10:34:58;39.58;;;27.42;;
59786;SDS011;45672;51.612;5.536;2022-08-19T10:37:24;34.65;;;26.95;;
59786;SDS011;45672;51.612;5.536;2022-08-19T10:39:49;38.55;;;25.77;;
59786;SDS011;45672;51.612;5.536;2022-08-19T10:42:15;37.50;;;26.77;;
59786;SDS011;45672;51.612;5.536;2022-08-19T10:44:41;40.38;;;27.13;;
59786;SDS011;45672;51.612;5.536;2022-08-19T10:47:07;42.97;;;27.45;;
59786;SDS011;45672;51.612;5.536;2022-08-19T10:49:32;39.30;;;27.75;;
59786;SDS011;45672;51.612;5.536;2022-08-19T10:52:17;37.33;;;25.30;;
59786;SDS011;45672;51.612;5.536;2022-08-19T10:54:58;40.00;;;25.83;;
59786;SDS011;45672;51.612;5.536;2022-08-19T10:57:43;35.65;;;27.20;;
59786;SDS011;45672;51.612;5.536;2022-08-19T11:00:08;39.22;;;28.25;;
59786;SDS011;45672;51.612;5.536;2022-08-19T11:02:34;39.55;;;27.40;;
59786;SDS011;45672;51.612;5.536;2022-08-19T11:04:59;37.25;;;26.83;;
59786;SDS011;45672;51.612;5.536;2022-08-19T11:07:25;43.25;;;29.58;;
59786;SDS011;45672;51.612;5.536;2022-08-19T11:09:51;43.28;;;28.17;;
59786;SDS011;45672;51.612;5.536;2022-08-19T11:12:16;49.47;;;30.40;;
59786;SDS011;45672;51.612;5.536;2022-08-19T11:14:42;42.92;;;27.70;;
59786;SDS011;45672;51.612;5.536;2022-08-19T11:17:07;45.33;;;29.13;;
59786;SDS011;45672;51.612;5.536;2022-08-19T11:19:33;39.75;;;27.55;;
59786;SDS011;45672;51.612;5.536;2022-08-19T11:21:59;39.28;;;27.90;;
59786;SDS011;45672;51.612;5.536;2022-08-19T11:24:26;32.55;;;26.13;;
59786;SDS011;45672;51.612;5.536;2022-08-19T11:26:53;34.38;;;26.92;;
59786;SDS011;45672;51.612;5.536;2022-08-19T11:29:25;39.75;;;28.38;;
59786;SDS011;45672;51.612;5.536;2022-08-19T11:31:52;38.58;;;26.95;;
59786;SDS011;45672;51.612;5.536;2022-08-19T11:34:21;41.13;;;27.30;;
59786;SDS011;45672;51.612;5.536;2022-08-19T11:36:51;38.40;;;25.40;;
59786;SDS011;45672;51.612;5.536;2022-08-19T11:39:18;35.97;;;24.70;;
59786;SDS011;45672;51.612;5.536;2022-08-19T11:41:45;32.85;;;24.35;;
59786;SDS011;45672;51.612;5.536;2022-08-19T11:44:11;34.08;;;23.63;;
59786;SDS011;45672;51.612;5.536;2022-08-19T11:46:39;33.25;;;23.33;;
59786;SDS011;45672;51.612;5.536;2022-08-19T11:49:06;33.30;;;23.08;;
59786;SDS011;45672;51.612;5.536;2022-08-19T11:51:32;33.55;;;23.92;;
59786;SDS011;45672;51.612;5.536;2022-08-19T11:53:59;32.13;;;22.65;;
59786;SDS011;45672;51.612;5.536;2022-08-19T11:56:25;29.88;;;22.17;;
59786;SDS011;45672;51.612;5.536;2022-08-19T11:58:52;29.35;;;21.55;;
59786;SDS011;45672;51.612;5.536;2022-08-19T12:01:19;31.52;;;20.02;;
59786;SDS011;45672;51.612;5.536;2022-08-19T12:03:48;29.50;;;21.52;;
59786;SDS011;45672;51.612;5.536;2022-08-19T12:06:17;33.38;;;23.08;;
59786;SDS011;45672;51.612;5.536;2022-08-19T12:08:45;34.00;;;22.48;;
59786;SDS011;45672;51.612;5.536;2022-08-19T12:11:11;31.73;;;22.63;;
59786;SDS011;45672;51.612;5.536;2022-08-19T12:13:38;31.58;;;22.23;;
59786;SDS011;45672;51.612;5.536;2022-08-19T12:16:08;27.58;;;21.13;;
59786;SDS011;45672;51.612;5.536;2022-08-19T12:18:39;29.50;;;21.55;;
59786;SDS011;45672;51.612;5.536;2022-08-19T12:21:06;27.42;;;19.85;;
59786;SDS011;45672;51.612;5.536;2022-08-19T12:23:31;24.08;;;17.38;;
59786;SDS011;45672;51.612;5.536;2022-08-19T12:25:56;24.75;;;17.05;;
59786;SDS011;45672;51.612;5.536;2022-08-19T12:28:23;21.23;;;15.75;;
59786;SDS011;45672;51.612;5.536;2022-08-19T12:30:49;29.08;;;17.83;;
59786;SDS011;45672;51.612;5.536;2022-08-19T12:33:16;24.70;;;18.60;;
59786;SDS011;45672;51.612;5.536;2022-08-19T12:35:44;23.73;;;17.40;;
59786;SDS011;45672;51.612;5.536;2022-08-19T12:38:11;33.15;;;17.83;;
59786;SDS011;45672;51.612;5.536;2022-08-19T12:40:37;27.58;;;17.75;;
59786;SDS011;45672;51.612;5.536;2022-08-19T12:43:04;28.05;;;18.20;;
59786;SDS011;45672;51.612;5.536;2022-08-19T12:45:30;25.98;;;17.95;;
59786;SDS011;45672;51.612;5.536;2022-08-19T12:47:55;25.98;;;18.23;;
59786;SDS011;45672;51.612;5.536;2022-08-19T12:50:20;24.00;;;18.17;;
59786;SDS011;45672;51.612;5.536;2022-08-19T12:52:46;29.42;;;18.98;;
59786;SDS011;45672;51.612;5.536;2022-08-19T12:55:13;24.60;;;20.13;;
59786;SDS011;45672;51.612;5.536;2022-08-19T12:57:39;22.83;;;18.13;;
59786;SDS011;45672;51.612;5.536;2022-08-19T13:00:07;27.42;;;20.02;;
59786;SDS011;45672;51.612;5.536;2022-08-19T13:02:43;28.05;;;19.08;;
59786;SDS011;45672;51.612;5.536;2022-08-19T13:05:14;26.55;;;21.20;;
59786;SDS011;45672;51.612;5.536;2022-08-19T13:07:41;27.08;;;21.65;;
59786;SDS011;45672;51.612;5.536;2022-08-19T13:10:09;29.67;;;21.75;;
59786;SDS011;45672;51.612;5.536;2022-08-19T13:12:36;31.20;;;20.67;;
59786;SDS011;45672;51.612;5.536;2022-08-19T13:15:02;30.45;;;21.70;;
59786;SDS011;45672;51.612;5.536;2022-08-19T13:17:28;31.02;;;22.17;;
59786;SDS011;45672;51.612;5.536;2022-08-19T13:19:53;29.60;;;22.55;;
59786;SDS011;45672;51.612;5.536;2022-08-19T13:22:19;27.60;;;20.55;;
59786;SDS011;45672;51.612;5.536;2022-08-19T13:24:44;36.58;;;22.23;;
59786;SDS011;45672;51.612;5.536;2022-08-19T13:27:09;31.25;;;22.05;;
59786;SDS011;45672;51.612;5.536;2022-08-19T13:29:35;28.25;;;21.40;;
59786;SDS011;45672;51.612;5.536;2022-08-19T13:32:19;28.58;;;20.83;;
59786;SDS011;45672;51.612;5.536;2022-08-19T13:35:03;27.88;;;22.23;;
59786;SDS011;45672;51.612;5.536;2022-08-19T13:37:29;33.92;;;23.45;;
59786;SDS011;45672;51.612;5.536;2022-08-19T13:40:07;33.17;;;22.38;;
59786;SDS011;45672;51.612;5.536;2022-08-19T13:42:37;30.95;;;23.13;;
59786;SDS011;45672;51.612;5.536;2022-08-19T13:45:03;34.55;;;22.83;;
59786;SDS011;45672;51.612;5.536;2022-08-19T13:47:31;33.13;;;22.58;;
59786;SDS011;45672;51.612;5.536;2022-08-19T13:49:56;33.45;;;24.17;;
59786;SDS011;45672;51.612;5.536;2022-08-19T13:52:22;30.75;;;23.20;;
59786;SDS011;45672;51.612;5.536;2022-08-19T13:54:47;31.55;;;22.98;;
59786;SDS011;45672;51.612;5.536;2022-08-19T13:57:13;34.58;;;22.65;;
59786;SDS011;45672;51.612;5.536;2022-08-19T13:59:38;32.58;;;21.50;;
59786;SDS011;45672;51.612;5.536;2022-08-19T14:02:04;31.65;;;21.58;;
59786;SDS011;45672;51.612;5.536;2022-08-19T14:04:30;29.70;;;21.38;;
59786;SDS011;45672;51.612;5.536;2022-08-19T14:06:56;36.13;;;24.23;;
59786;SDS011;45672;51.612;5.536;2022-08-19T14:09:21;31.58;;;23.15;;
59786;SDS011;45672;51.612;5.536;2022-08-19T14:11:46;31.35;;;20.77;;
59786;SDS011;45672;51.612;5.536;2022-08-19T14:14:11;28.05;;;20.63;;
59786;SDS011;45672;51.612;5.536;2022-08-19T14:16:37;32.83;;;19.67;;
59786;SDS011;45672;51.612;5.536;2022-08-19T14:19:02;27.35;;;19.45;;
59786;SDS011;45672;51.612;5.536;2022-08-19T14:21:28;25.10;;;19.38;;
59786;SDS011;45672;51.612;5.536;2022-08-19T14:23:53;22.90;;;18.00;;
59786;SDS011;45672;51.612;5.536;2022-08-19T14:26:19;25.52;;;17.58;;
59786;SDS011;45672;51.612;5.536;2022-08-19T14:28:46;21.20;;;15.73;;
59786;SDS011;45672;51.612;5.536;2022-08-19T14:31:12;25.23;;;16.08;;
59786;SDS011;45672;51.612;5.536;2022-08-19T14:33:44;19.45;;;14.65;;